Airfield :
LOGIN :

Register | Disclaimer

   EN    FR    IT 

 










Legend :    VFR   Marginal VFR   IFR   Intensive IFR   Very Intensive IFR
Visi :
Ceiling :
>= 8 km
>= 3000ft
5 to 8 km
1000 to 3000 ft
1500m to 5 km
500 to 1000 ft
800 to 1500m
200 to 500 ft
< 800m
< 200 ft
Symbols :   Thunderstorms  Fog  Heavy snow  Heavy precipitations  Wind > 20 kt
SIGMETs :     Misc.  Thunderstorms  Icing  Turbulence  Mountain Waves  Volcanic Ashes







- Airport Elevation : 294 ft
- IATA code : NAP


LIRN - Naples Capodichino

CURRENT METAR :
  • 131650Z 27007KT 8000 FEW020 BKN030 13/08 Q1019 NOSIG

EXPIRED METARs :
  • 131620Z 24006KT 190V260 8000 FEW020 BKN030 13/10 Q1019 NOSIG
  • 131550Z 20003KT 180V250 8000 FEW020 BKN030 13/11 Q1019 NOSIG
  • 131520Z 23004KT 200V260 8000 -RA FEW020 BKN030 13/11 Q1019 NOSIG
  • 131450Z 17002KT 8000 FEW020 BKN030 12/11 Q1018 NOSIG
  • 131420Z VRB02KT 8000 FEW020 BKN030 13/11 Q1018 NOSIG
  • 131350Z VRB02KT 8000 -RA FEW020 BKN030 12/10 Q1018 NOSIG

TAF TAF LIRN
Valid from the 13 at 12:00 until the 14 at 12:00 UTC


131100Z 1312/1412 29010KT 9999 SCT020
No reported NOTAMs for that airfield.



MET'MAP, your aeronautical weather chart ! - Copyright ORBIFLY December 2007 - Disclaimer

ORBIFLY MET'MAP TEAM :

Programming & Development : Alexandra Zaïnal
Concept & Development : Baudouin d'Aumeries
Co-Development & Prog : Marc-Olivier Méhu
Technical & hardware support : Manuel Goepfert

Contact : metmap@orbifly.com




SOURCES & CREDITS :

   NOAA